This demonstration page uses our WeatherBlox Daily Observations layout. Learn more.

36.17497, -115.13722

Hourly Observations for April 11, 2015

Temp ( °F °C ) Dew Point ( °F °C ) Humidity (%) Winds ( mph kmh ) Pressure ( in mb ) Visibility ( mi km ) Precip ( " mm )
12:53 am 00:53 Clear 59 15 14 -10 17 17 NW 5 7 29.91 1013 10 16.0934 0 0
1:53 am 01:53 Clear 58 14.4 14 -10 18 18 NW 5 7 29.9 1013 10 16.0934 0 0
2:53 am 02:53 Clear 58 14.4 14 -10 18 18 WNW 5 7 29.89 1012 10 16.0934 0 0
3:53 am 03:53 Clear 55 12.8 13 -10.6 19 19 Calm 29.89 1012 10 16.0934 0 0
4:53 am 04:53 Clear 55 12.8 13 -10.6 19 19 Calm 29.9 1013 10 16.0934 0 0
5:53 am 05:53 Clear 56 13.3 14 -10 19 19 NW 6 9 29.91 1013 10 16.0934 0 0
6:53 am 06:53 Sunny 54 12.2 16 -8.9 22 22 WNW 8 13 29.93 1014 10 16.0934 0 0
7:53 am 07:53 Sunny 62 16.7 12 -11.1 14 14 NW 12 19 29.94 1014 10 16.0934 0 0
8:53 am 08:53 Sunny 65 18.3 11 -11.7 12 12 W 3 6 29.94 1014 10 16.0934 0 0
9:53 am 09:53 Sunny 69 20.6 10 -12.2 10 10 VRB 3 6 29.95 1014 10 16.0934 0 0
10:53 am 10:53 Sunny 71 21.7 8 -13.3 8 8 VRB 5 7 29.94 1014 10 16.0934 0 0
11:53 am 11:53 Sunny 74 23.3 8 -13.3 8 8 S 7 11 29.93 1013 10 16.0934 0 0
12:53 pm 12:53 Sunny 76 24.4 8 -13.3 7 7 VRB 5 7 29.9 1012 10 16.0934 0 0
1:53 pm 13:53 Sunny 78 25.6 11 -11.7 8 8 undefined N/A 29.86 1011 10 16.0934 0 0
2:53 pm 14:53 Sunny 79 26.1 10 -12.2 7 7 SSE 5 7 29.83 1010 10 16.0934 0 0
3:53 pm 15:53 Sunny 80 26.7 10 -12.2 7 7 SE 8 13 29.8 1009 10 16.0934 0 0
4:53 pm 16:53 Sunny 80 26.7 11 -11.7 7 7 E 3 6 29.78 1009 10 16.0934 0 0
5:53 pm 17:53 Sunny 80 26.7 12 -11.1 7 7 ESE 9 15 29.78 1008 10 16.0934 0 0
6:53 pm 18:53 Sunny 79 26.1 12 -11.1 8 8 SSE 5 7 29.78 1009 10 16.0934 0 0
7:53 pm 19:53 Clear 75 23.9 14 -10 10 10 SE 5 7 29.8 1009 10 16.0934 0 0
8:53 pm 20:53 Clear 73 22.8 14 -10 10 10 ESE 6 9 29.81 1010 10 16.0934 0 0
9:53 pm 21:53 Clear 71 21.7 16 -8.9 12 12 N 8 13 29.82 1010 10 16.0934 0 0
10:53 pm 22:53 Clear 68 20 17 -8.3 14 14 NW 3 6 29.82 1010 10 16.0934 0 0
11:53 pm 23:53 Clear 66 18.9 16 -8.9 14 14 Calm 29.83 1010 10 16.0934 0 0

Powered by AerisWeather